LFLB/CMF METAR and TAF weather

Enter ICAO airport designator
Station Type Date Time Source
LFLB METAR 2021/05/11 16:30 UTC NOAA

LFLB 111630Z AUTO 06003KT 010V110 9999 -RA FEW015/// OVC035/// ///TCU 12/10 Q1014 TEMPO 3000 SHRA SCT025CB OVC030


Station Type Date Time Source
LFLB Decoded METAR 2021/05/11 16:30 UTC NOAA

Chambery / Aix-Les-Bains, France (LFLB) 45-39N 005-53E 239M
May 11, 2021 - 12:30 PM EDT / 2021.05.11 1630 UTC
Wind: from the ENE (060 degrees) at 3 MPH (3 KT) (direction variable):0
Visibility: greater than 7 mile(s):0
Sky conditions: overcast
Weather: light rain; Cumulonimbus clouds, towering cumulus clouds observed
Temperature: 53 F (12 C)
Dew Point: 50 F (10 C)
Relative Humidity: 87%
Pressure (altimeter): 29.94 in. Hg (1014 hPa)
ob: LFLB 111630Z AUTO 06003KT 010V110 9999 -RA FEW015/// OVC035/// ///TCU 12/10 Q1014 TEMPO 3000 SHRA SCT025CB OVC030
cycle: 16

Station Type Date Time Source
LFLB TAF 2021/05/11 15:42 UTC NOAA

TAF LFLB 111400Z 1115/1215 18007KT 9999 FEW040 BKN060
TEMPO 1115/1118 36010KT 3000 SHRA SCT025CB OVC030 PROB30
TEMPO 1115/1117 VRB15G25KT -TSRA PROB40
TEMPO 1121/1203 4000 SHRA SCT025TCU BKN030
TEMPO 1203/1206 VRB02KT 2000 MIFG
BECMG 1206/1209 36008KT

Example: see airport list